Chinook, Washington
Current Conditions -  °F | °C
As of 8:37 AM on Wednesday 22 Oct 2014 (Local Time) from KAST Reporting Station
Light Rain Light Rain  
Wind Chill: 58°   Ceiling: 3900
Heat Index: 58°   Visibility: 9mi
Dew Point: 56°   Wind: 12mph
Humidity: 93%   Direction: 200°SSW
Pressure: 29.69"   Gusts: NA
Location:  46.28°N, 123.94°W
Report Text: KAST 221537Z AUTO 20010KT 9SM -RA FEW009 OVC039 14/13 A2969 RMK AO2 RAB1456 P0001 T01440133
Loading
Personal Weather Stations






























Interactive Weather Map
Tropical Storm Tracking
New forecast layout! Learn more

10-Day Weather Forecast

Advertisements
Track Severe Weather on mobile